sensor_id;sensor_type;location;lat;lon;timestamp;P1;durP1;ratioP1;P2;durP2;ratioP2
3647;SDS011;1840;48.892;15.312;2023-01-29T00:01:43;20.83;;;11.77;;
3647;SDS011;1840;48.892;15.312;2023-01-29T00:04:11;19.37;;;12.20;;
3647;SDS011;1840;48.892;15.312;2023-01-29T00:06:39;19.30;;;11.60;;
3647;SDS011;1840;48.892;15.312;2023-01-29T00:09:07;18.50;;;11.33;;
3647;SDS011;1840;48.892;15.312;2023-01-29T00:11:35;21.23;;;11.80;;
3647;SDS011;1840;48.892;15.312;2023-01-29T00:14:03;18.43;;;11.10;;
3647;SDS011;1840;48.892;15.312;2023-01-29T00:16:32;20.27;;;12.03;;
3647;SDS011;1840;48.892;15.312;2023-01-29T00:19:01;17.30;;;11.13;;
3647;SDS011;1840;48.892;15.312;2023-01-29T00:21:30;18.53;;;11.10;;
3647;SDS011;1840;48.892;15.312;2023-01-29T00:23:58;18.00;;;11.87;;
3647;SDS011;1840;48.892;15.312;2023-01-29T00:26:26;17.37;;;11.10;;
3647;SDS011;1840;48.892;15.312;2023-01-29T00:28:55;18.00;;;10.63;;
3647;SDS011;1840;48.892;15.312;2023-01-29T00:31:25;15.00;;;9.80;;
3647;SDS011;1840;48.892;15.312;2023-01-29T00:33:53;17.93;;;9.73;;
3647;SDS011;1840;48.892;15.312;2023-01-29T00:36:23;14.30;;;9.33;;
3647;SDS011;1840;48.892;15.312;2023-01-29T00:38:55;16.60;;;10.50;;
3647;SDS011;1840;48.892;15.312;2023-01-29T00:41:25;14.03;;;9.20;;
3647;SDS011;1840;48.892;15.312;2023-01-29T00:44:11;14.33;;;8.80;;
3647;SDS011;1840;48.892;15.312;2023-01-29T00:46:56;13.13;;;8.67;;
3647;SDS011;1840;48.892;15.312;2023-01-29T00:49:25;11.10;;;7.10;;
3647;SDS011;1840;48.892;15.312;2023-01-29T00:51:54;13.23;;;8.00;;
3647;SDS011;1840;48.892;15.312;2023-01-29T00:54:40;10.47;;;6.80;;
3647;SDS011;1840;48.892;15.312;2023-01-29T00:57:08;12.97;;;7.73;;
3647;SDS011;1840;48.892;15.312;2023-01-29T00:59:35;11.27;;;7.60;;
3647;SDS011;1840;48.892;15.312;2023-01-29T01:02:03;11.27;;;7.07;;
3647;SDS011;1840;48.892;15.312;2023-01-29T01:04:49;11.83;;;7.07;;
3647;SDS011;1840;48.892;15.312;2023-01-29T01:07:19;12.80;;;7.00;;
3647;SDS011;1840;48.892;15.312;2023-01-29T01:09:47;10.53;;;7.77;;
3647;SDS011;1840;48.892;15.312;2023-01-29T01:12:32;10.20;;;7.03;;
3647;SDS011;1840;48.892;15.312;2023-01-29T01:15:00;11.83;;;8.20;;
3647;SDS011;1840;48.892;15.312;2023-01-29T01:17:28;14.03;;;8.43;;
3647;SDS011;1840;48.892;15.312;2023-01-29T01:19:56;13.70;;;7.70;;
3647;SDS011;1840;48.892;15.312;2023-01-29T01:22:26;11.93;;;7.97;;
3647;SDS011;1840;48.892;15.312;2023-01-29T01:24:54;11.47;;;6.97;;
3647;SDS011;1840;48.892;15.312;2023-01-29T01:27:22;11.87;;;6.20;;
3647;SDS011;1840;48.892;15.312;2023-01-29T01:29:50;8.93;;;6.30;;
3647;SDS011;1840;48.892;15.312;2023-01-29T01:32:18;9.53;;;6.83;;
3647;SDS011;1840;48.892;15.312;2023-01-29T01:34:46;11.60;;;7.20;;
3647;SDS011;1840;48.892;15.312;2023-01-29T01:37:14;9.97;;;6.70;;
3647;SDS011;1840;48.892;15.312;2023-01-29T01:39:43;10.20;;;6.10;;
3647;SDS011;1840;48.892;15.312;2023-01-29T01:42:14;9.70;;;7.07;;
3647;SDS011;1840;48.892;15.312;2023-01-29T01:44:50;10.47;;;6.90;;
3647;SDS011;1840;48.892;15.312;2023-01-29T01:47:25;9.17;;;6.90;;
3647;SDS011;1840;48.892;15.312;2023-01-29T01:49:58;9.13;;;6.40;;
3647;SDS011;1840;48.892;15.312;2023-01-29T01:52:31;9.30;;;6.07;;
3647;SDS011;1840;48.892;15.312;2023-01-29T01:55:03;10.20;;;6.10;;
3647;SDS011;1840;48.892;15.312;2023-01-29T01:57:33;7.37;;;5.60;;
3647;SDS011;1840;48.892;15.312;2023-01-29T02:00:04;9.23;;;6.07;;
3647;SDS011;1840;48.892;15.312;2023-01-29T02:02:37;10.33;;;6.40;;
3647;SDS011;1840;48.892;15.312;2023-01-29T02:05:24;8.10;;;5.33;;
3647;SDS011;1840;48.892;15.312;2023-01-29T02:08:11;8.93;;;6.07;;
3647;SDS011;1840;48.892;15.312;2023-01-29T02:11:00;10.50;;;6.67;;
3647;SDS011;1840;48.892;15.312;2023-01-29T02:13:28;10.70;;;6.47;;
3647;SDS011;1840;48.892;15.312;2023-01-29T02:15:56;8.53;;;6.27;;
3647;SDS011;1840;48.892;15.312;2023-01-29T02:18:24;9.40;;;6.47;;
3647;SDS011;1840;48.892;15.312;2023-01-29T02:20:58;11.27;;;6.50;;
3647;SDS011;1840;48.892;15.312;2023-01-29T02:26:38;11.83;;;6.80;;
3647;SDS011;1840;48.892;15.312;2023-01-29T02:29:17;11.03;;;6.17;;
3647;SDS011;1840;48.892;15.312;2023-01-29T02:31:57;9.63;;;5.90;;
3647;SDS011;1840;48.892;15.312;2023-01-29T02:34:35;8.80;;;6.00;;
3647;SDS011;1840;48.892;15.312;2023-01-29T02:37:29;10.70;;;6.70;;
3647;SDS011;1840;48.892;15.312;2023-01-29T02:40:06;8.30;;;5.97;;
3647;SDS011;1840;48.892;15.312;2023-01-29T02:42:42;8.10;;;5.77;;
3647;SDS011;1840;48.892;15.312;2023-01-29T02:45:18;9.50;;;6.47;;
3647;SDS011;1840;48.892;15.312;2023-01-29T02:47:53;9.20;;;6.13;;
3647;SDS011;1840;48.892;15.312;2023-01-29T02:50:25;10.80;;;7.37;;
3647;SDS011;1840;48.892;15.312;2023-01-29T02:53:00;9.00;;;7.00;;
3647;SDS011;1840;48.892;15.312;2023-01-29T02:55:34;12.07;;;7.70;;
3647;SDS011;1840;48.892;15.312;2023-01-29T02:58:06;11.50;;;6.50;;
3647;SDS011;1840;48.892;15.312;2023-01-29T03:00:41;10.70;;;6.33;;
3647;SDS011;1840;48.892;15.312;2023-01-29T03:03:12;12.30;;;7.00;;
3647;SDS011;1840;48.892;15.312;2023-01-29T03:05:44;12.17;;;6.27;;
3647;SDS011;1840;48.892;15.312;2023-01-29T03:08:21;10.07;;;6.03;;
3647;SDS011;1840;48.892;15.312;2023-01-29T03:11:02;14.03;;;6.63;;
3647;SDS011;1840;48.892;15.312;2023-01-29T03:13:34;10.50;;;7.67;;
3647;SDS011;1840;48.892;15.312;2023-01-29T03:16:07;12.07;;;7.87;;
3647;SDS011;1840;48.892;15.312;2023-01-29T03:18:41;11.57;;;7.63;;
3647;SDS011;1840;48.892;15.312;2023-01-29T03:21:17;10.73;;;6.73;;
3647;SDS011;1840;48.892;15.312;2023-01-29T03:24:06;8.30;;;6.00;;
3647;SDS011;1840;48.892;15.312;2023-01-29T03:26:57;9.00;;;6.40;;
3647;SDS011;1840;48.892;15.312;2023-01-29T03:29:46;9.77;;;5.97;;
3647;SDS011;1840;48.892;15.312;2023-01-29T03:32:35;8.50;;;6.40;;
3647;SDS011;1840;48.892;15.312;2023-01-29T03:35:05;10.33;;;7.20;;
3647;SDS011;1840;48.892;15.312;2023-01-29T03:37:36;14.47;;;7.40;;
3647;SDS011;1840;48.892;15.312;2023-01-29T03:40:10;11.70;;;7.63;;
3647;SDS011;1840;48.892;15.312;2023-01-29T03:42:48;9.73;;;7.20;;
3647;SDS011;1840;48.892;15.312;2023-01-29T03:45:26;15.43;;;8.00;;
3647;SDS011;1840;48.892;15.312;2023-01-29T03:48:04;11.50;;;8.23;;
3647;SDS011;1840;48.892;15.312;2023-01-29T03:50:37;18.07;;;11.07;;
3647;SDS011;1840;48.892;15.312;2023-01-29T03:53:15;15.87;;;7.93;;
3647;SDS011;1840;48.892;15.312;2023-01-29T03:55:50;11.90;;;7.20;;
3647;SDS011;1840;48.892;15.312;2023-01-29T03:58:27;13.97;;;7.93;;
3647;SDS011;1840;48.892;15.312;2023-01-29T04:01:02;11.47;;;7.50;;
3647;SDS011;1840;48.892;15.312;2023-01-29T04:03:40;11.57;;;7.60;;
3647;SDS011;1840;48.892;15.312;2023-01-29T04:06:12;15.80;;;8.00;;
3647;SDS011;1840;48.892;15.312;2023-01-29T04:08:44;10.80;;;7.20;;
3647;SDS011;1840;48.892;15.312;2023-01-29T04:11:17;9.80;;;6.77;;
3647;SDS011;1840;48.892;15.312;2023-01-29T04:13:47;11.57;;;7.50;;
3647;SDS011;1840;48.892;15.312;2023-01-29T04:16:16;9.77;;;6.87;;
3647;SDS011;1840;48.892;15.312;2023-01-29T04:18:50;10.00;;;6.83;;
3647;SDS011;1840;48.892;15.312;2023-01-29T04:21:19;11.70;;;7.80;;
3647;SDS011;1840;48.892;15.312;2023-01-29T04:23:47;11.27;;;6.80;;
3647;SDS011;1840;48.892;15.312;2023-01-29T04:26:18;10.53;;;6.03;;
3647;SDS011;1840;48.892;15.312;2023-01-29T04:29:04;10.70;;;6.40;;
3647;SDS011;1840;48.892;15.312;2023-01-29T04:31:48;12.40;;;7.87;;
3647;SDS011;1840;48.892;15.312;2023-01-29T04:34:22;11.67;;;7.33;;
3647;SDS011;1840;48.892;15.312;2023-01-29T04:36:57;10.70;;;7.27;;
3647;SDS011;1840;48.892;15.312;2023-01-29T04:39:31;11.30;;;7.40;;
3647;SDS011;1840;48.892;15.312;2023-01-29T04:42:09;10.77;;;7.60;;
3647;SDS011;1840;48.892;15.312;2023-01-29T04:44:42;10.63;;;7.33;;
3647;SDS011;1840;48.892;15.312;2023-01-29T04:47:18;9.07;;;6.47;;
3647;SDS011;1840;48.892;15.312;2023-01-29T04:49:55;11.60;;;8.20;;
3647;SDS011;1840;48.892;15.312;2023-01-29T04:52:31;12.23;;;7.57;;
3647;SDS011;1840;48.892;15.312;2023-01-29T04:55:05;9.60;;;6.53;;
3647;SDS011;1840;48.892;15.312;2023-01-29T04:57:41;14.57;;;8.20;;
3647;SDS011;1840;48.892;15.312;2023-01-29T05:00:15;13.93;;;7.90;;
3647;SDS011;1840;48.892;15.312;2023-01-29T05:02:46;11.00;;;7.97;;
3647;SDS011;1840;48.892;15.312;2023-01-29T05:05:16;11.30;;;8.47;;
3647;SDS011;1840;48.892;15.312;2023-01-29T05:07:46;11.17;;;7.87;;
3647;SDS011;1840;48.892;15.312;2023-01-29T05:10:16;13.77;;;8.40;;
3647;SDS011;1840;48.892;15.312;2023-01-29T05:12:47;12.97;;;9.00;;
3647;SDS011;1840;48.892;15.312;2023-01-29T05:15:20;14.63;;;9.33;;
3647;SDS011;1840;48.892;15.312;2023-01-29T05:17:52;13.37;;;8.10;;
3647;SDS011;1840;48.892;15.312;2023-01-29T05:20:28;13.57;;;8.40;;
3647;SDS011;1840;48.892;15.312;2023-01-29T05:22:59;10.50;;;7.30;;
3647;SDS011;1840;48.892;15.312;2023-01-29T05:25:28;11.53;;;7.80;;
3647;SDS011;1840;48.892;15.312;2023-01-29T05:27:58;13.27;;;8.70;;
3647;SDS011;1840;48.892;15.312;2023-01-29T05:30:32;14.57;;;9.10;;
3647;SDS011;1840;48.892;15.312;2023-01-29T05:33:01;10.43;;;8.37;;
3647;SDS011;1840;48.892;15.312;2023-01-29T05:35:31;10.47;;;7.87;;
3647;SDS011;1840;48.892;15.312;2023-01-29T05:38:00;10.90;;;7.40;;
3647;SDS011;1840;48.892;15.312;2023-01-29T05:40:27;10.03;;;7.50;;
3647;SDS011;1840;48.892;15.312;2023-01-29T05:42:56;11.50;;;7.10;;
3647;SDS011;1840;48.892;15.312;2023-01-29T05:45:24;10.67;;;7.90;;
3647;SDS011;1840;48.892;15.312;2023-01-29T05:47:54;14.87;;;8.63;;
3647;SDS011;1840;48.892;15.312;2023-01-29T05:50:23;13.10;;;8.70;;
3647;SDS011;1840;48.892;15.312;2023-01-29T05:52:56;10.43;;;7.60;;
3647;SDS011;1840;48.892;15.312;2023-01-29T05:55:24;12.63;;;8.50;;
3647;SDS011;1840;48.892;15.312;2023-01-29T05:57:52;13.47;;;9.40;;
3647;SDS011;1840;48.892;15.312;2023-01-29T06:00:20;14.70;;;9.23;;
3647;SDS011;1840;48.892;15.312;2023-01-29T06:02:48;12.30;;;8.33;;
3647;SDS011;1840;48.892;15.312;2023-01-29T06:05:17;13.30;;;9.20;;
3647;SDS011;1840;48.892;15.312;2023-01-29T06:07:45;11.83;;;8.13;;
3647;SDS011;1840;48.892;15.312;2023-01-29T06:10:15;11.57;;;7.83;;
3647;SDS011;1840;48.892;15.312;2023-01-29T06:12:45;12.80;;;8.43;;
3647;SDS011;1840;48.892;15.312;2023-01-29T06:15:13;16.53;;;10.60;;
3647;SDS011;1840;48.892;15.312;2023-01-29T06:17:41;16.13;;;10.20;;
3647;SDS011;1840;48.892;15.312;2023-01-29T06:20:10;16.87;;;10.70;;
3647;SDS011;1840;48.892;15.312;2023-01-29T06:22:38;16.50;;;10.17;;
3647;SDS011;1840;48.892;15.312;2023-01-29T06:25:07;15.80;;;10.47;;
3647;SDS011;1840;48.892;15.312;2023-01-29T06:27:36;14.83;;;9.93;;
3647;SDS011;1840;48.892;15.312;2023-01-29T06:30:05;13.13;;;10.33;;
3647;SDS011;1840;48.892;15.312;2023-01-29T06:32:34;24.33;;;10.80;;
3647;SDS011;1840;48.892;15.312;2023-01-29T06:35:02;16.80;;;11.07;;
3647;SDS011;1840;48.892;15.312;2023-01-29T06:37:30;18.33;;;11.07;;
3647;SDS011;1840;48.892;15.312;2023-01-29T06:39:58;14.00;;;10.20;;
3647;SDS011;1840;48.892;15.312;2023-01-29T06:42:26;14.00;;;9.60;;
3647;SDS011;1840;48.892;15.312;2023-01-29T06:44:56;16.90;;;10.50;;
3647;SDS011;1840;48.892;15.312;2023-01-29T06:47:25;15.13;;;9.70;;
3647;SDS011;1840;48.892;15.312;2023-01-29T06:49:54;14.77;;;9.93;;
3647;SDS011;1840;48.892;15.312;2023-01-29T06:52:22;18.03;;;11.60;;
3647;SDS011;1840;48.892;15.312;2023-01-29T06:54:50;16.87;;;11.67;;
3647;SDS011;1840;48.892;15.312;2023-01-29T06:57:18;16.33;;;10.90;;
3647;SDS011;1840;48.892;15.312;2023-01-29T06:59:46;15.87;;;11.43;;
3647;SDS011;1840;48.892;15.312;2023-01-29T07:02:16;17.20;;;12.20;;
3647;SDS011;1840;48.892;15.312;2023-01-29T07:04:44;18.93;;;12.47;;
3647;SDS011;1840;48.892;15.312;2023-01-29T07:07:12;16.40;;;11.10;;
3647;SDS011;1840;48.892;15.312;2023-01-29T07:09:40;17.90;;;11.83;;
3647;SDS011;1840;48.892;15.312;2023-01-29T07:12:09;22.53;;;12.10;;
3647;SDS011;1840;48.892;15.312;2023-01-29T07:14:37;21.03;;;12.00;;
3647;SDS011;1840;48.892;15.312;2023-01-29T07:17:05;17.17;;;11.90;;
3647;SDS011;1840;48.892;15.312;2023-01-29T07:19:35;19.43;;;12.23;;
3647;SDS011;1840;48.892;15.312;2023-01-29T07:22:03;14.20;;;9.23;;
3647;SDS011;1840;48.892;15.312;2023-01-29T07:24:31;15.80;;;10.80;;
3647;SDS011;1840;48.892;15.312;2023-01-29T07:26:59;15.47;;;10.40;;
3647;SDS011;1840;48.892;15.312;2023-01-29T07:29:27;14.17;;;10.63;;
3647;SDS011;1840;48.892;15.312;2023-01-29T07:31:55;14.93;;;10.40;;
3647;SDS011;1840;48.892;15.312;2023-01-29T07:34:23;14.37;;;9.87;;
3647;SDS011;1840;48.892;15.312;2023-01-29T07:36:53;15.27;;;9.97;;
3647;SDS011;1840;48.892;15.312;2023-01-29T07:39:22;17.20;;;9.13;;
3647;SDS011;1840;48.892;15.312;2023-01-29T07:41:50;19.20;;;10.23;;
3647;SDS011;1840;48.892;15.312;2023-01-29T07:44:17;18.67;;;10.83;;
3647;SDS011;1840;48.892;15.312;2023-01-29T07:46:45;15.43;;;9.77;;
3647;SDS011;1840;48.892;15.312;2023-01-29T07:49:13;13.93;;;9.77;;
3647;SDS011;1840;48.892;15.312;2023-01-29T07:51:41;15.90;;;10.33;;
3647;SDS011;1840;48.892;15.312;2023-01-29T07:54:11;17.47;;;10.90;;
3647;SDS011;1840;48.892;15.312;2023-01-29T07:56:38;19.83;;;11.30;;
3647;SDS011;1840;48.892;15.312;2023-01-29T07:59:06;15.57;;;10.20;;
3647;SDS011;1840;48.892;15.312;2023-01-29T08:01:34;15.63;;;10.87;;
3647;SDS011;1840;48.892;15.312;2023-01-29T08:04:02;15.50;;;11.07;;
3647;SDS011;1840;48.892;15.312;2023-01-29T08:06:30;17.93;;;9.93;;
3647;SDS011;1840;48.892;15.312;2023-01-29T08:08:58;14.47;;;9.97;;
3647;SDS011;1840;48.892;15.312;2023-01-29T08:11:28;13.97;;;10.20;;
3647;SDS011;1840;48.892;15.312;2023-01-29T08:13:56;14.27;;;9.93;;
3647;SDS011;1840;48.892;15.312;2023-01-29T08:16:24;14.87;;;9.60;;
3647;SDS011;1840;48.892;15.312;2023-01-29T08:18:52;19.20;;;11.03;;
3647;SDS011;1840;48.892;15.312;2023-01-29T08:21:20;24.93;;;10.10;;
3647;SDS011;1840;48.892;15.312;2023-01-29T08:23:48;13.97;;;10.10;;
3647;SDS011;1840;48.892;15.312;2023-01-29T08:26:16;13.50;;;9.20;;
3647;SDS011;1840;48.892;15.312;2023-01-29T08:28:45;18.50;;;10.37;;
3647;SDS011;1840;48.892;15.312;2023-01-29T08:31:14;12.53;;;8.43;;
3647;SDS011;1840;48.892;15.312;2023-01-29T08:33:42;14.33;;;9.60;;
3647;SDS011;1840;48.892;15.312;2023-01-29T08:36:10;26.40;;;10.00;;
3647;SDS011;1840;48.892;15.312;2023-01-29T08:38:38;14.77;;;9.20;;
3647;SDS011;1840;48.892;15.312;2023-01-29T08:41:06;13.30;;;8.40;;
3647;SDS011;1840;48.892;15.312;2023-01-29T08:43:34;11.83;;;8.47;;
3647;SDS011;1840;48.892;15.312;2023-01-29T08:46:05;11.90;;;8.40;;
3647;SDS011;1840;48.892;15.312;2023-01-29T08:48:33;16.43;;;7.73;;
3647;SDS011;1840;48.892;15.312;2023-01-29T08:51:01;11.23;;;7.40;;
3647;SDS011;1840;48.892;15.312;2023-01-29T08:53:29;10.90;;;7.63;;
3647;SDS011;1840;48.892;15.312;2023-01-29T08:55:58;16.60;;;7.50;;
3647;SDS011;1840;48.892;15.312;2023-01-29T08:58:26;11.30;;;8.03;;
3647;SDS011;1840;48.892;15.312;2023-01-29T09:00:53;11.47;;;8.27;;
3647;SDS011;1840;48.892;15.312;2023-01-29T09:03:23;15.43;;;8.20;;
3647;SDS011;1840;48.892;15.312;2023-01-29T09:05:51;11.37;;;8.07;;
3647;SDS011;1840;48.892;15.312;2023-01-29T09:08:19;14.23;;;6.67;;
3647;SDS011;1840;48.892;15.312;2023-01-29T09:10:47;21.20;;;7.40;;
3647;SDS011;1840;48.892;15.312;2023-01-29T09:13:15;13.57;;;6.57;;
3647;SDS011;1840;48.892;15.312;2023-01-29T09:15:42;42.47;;;8.97;;
3647;SDS011;1840;48.892;15.312;2023-01-29T09:18:10;12.97;;;6.20;;
3647;SDS011;1840;48.892;15.312;2023-01-29T09:20:40;9.27;;;6.37;;
3647;SDS011;1840;48.892;15.312;2023-01-29T09:23:08;20.83;;;6.57;;
3647;SDS011;1840;48.892;15.312;2023-01-29T09:25:37;14.90;;;6.63;;
3647;SDS011;1840;48.892;15.312;2023-01-29T09:28:05;37.23;;;7.17;;
3647;SDS011;1840;48.892;15.312;2023-01-29T09:30:33;47.47;;;9.50;;
3647;SDS011;1840;48.892;15.312;2023-01-29T09:33:03;14.00;;;6.33;;
3647;SDS011;1840;48.892;15.312;2023-01-29T09:35:31;9.43;;;6.20;;
3647;SDS011;1840;48.892;15.312;2023-01-29T09:38:01;15.43;;;6.50;;
3647;SDS011;1840;48.892;15.312;2023-01-29T09:40:30;12.00;;;7.07;;
3647;SDS011;1840;48.892;15.312;2023-01-29T09:43:03;9.17;;;6.30;;
3647;SDS011;1840;48.892;15.312;2023-01-29T09:45:37;47.70;;;11.27;;
3647;SDS011;1840;48.892;15.312;2023-01-29T09:48:16;14.30;;;7.23;;
3647;SDS011;1840;48.892;15.312;2023-01-29T09:50:46;13.53;;;7.67;;
3647;SDS011;1840;48.892;15.312;2023-01-29T09:53:19;16.43;;;7.57;;
3647;SDS011;1840;48.892;15.312;2023-01-29T09:55:51;11.17;;;6.50;;
3647;SDS011;1840;48.892;15.312;2023-01-29T09:58:23;12.17;;;7.70;;
3647;SDS011;1840;48.892;15.312;2023-01-29T10:00:57;13.50;;;7.47;;
3647;SDS011;1840;48.892;15.312;2023-01-29T10:03:34;24.03;;;8.80;;
3647;SDS011;1840;48.892;15.312;2023-01-29T10:06:23;12.97;;;7.70;;
3647;SDS011;1840;48.892;15.312;2023-01-29T10:12:01;11.07;;;7.00;;
3647;SDS011;1840;48.892;15.312;2023-01-29T10:14:41;9.33;;;6.77;;
3647;SDS011;1840;48.892;15.312;2023-01-29T10:17:22;14.33;;;7.70;;
3647;SDS011;1840;48.892;15.312;2023-01-29T10:20:12;17.20;;;6.83;;
3647;SDS011;1840;48.892;15.312;2023-01-29T10:22:55;7.60;;;6.37;;
3647;SDS011;1840;48.892;15.312;2023-01-29T10:25:35;13.57;;;7.83;;
3647;SDS011;1840;48.892;15.312;2023-01-29T10:28:12;18.57;;;9.10;;
3647;SDS011;1840;48.892;15.312;2023-01-29T10:30:45;14.37;;;8.57;;
3647;SDS011;1840;48.892;15.312;2023-01-29T10:33:17;12.23;;;7.93;;
3647;SDS011;1840;48.892;15.312;2023-01-29T10:35:50;12.73;;;7.27;;
3647;SDS011;1840;48.892;15.312;2023-01-29T10:38:24;42.37;;;9.10;;
3647;SDS011;1840;48.892;15.312;2023-01-29T10:41:04;24.23;;;9.37;;
3647;SDS011;1840;48.892;15.312;2023-01-29T10:43:47;10.20;;;6.90;;
3647;SDS011;1840;48.892;15.312;2023-01-29T10:46:22;10.50;;;7.40;;
3647;SDS011;1840;48.892;15.312;2023-01-29T10:48:59;19.73;;;6.60;;
3647;SDS011;1840;48.892;15.312;2023-01-29T10:51:43;14.13;;;6.27;;
3647;SDS011;1840;48.892;15.312;2023-01-29T10:54:25;10.83;;;6.50;;
3647;SDS011;1840;48.892;15.312;2023-01-29T10:57:08;13.83;;;7.80;;
3647;SDS011;1840;48.892;15.312;2023-01-29T10:59:46;11.63;;;6.80;;
3647;SDS011;1840;48.892;15.312;2023-01-29T11:02:22;9.90;;;6.90;;
3647;SDS011;1840;48.892;15.312;2023-01-29T11:04:50;13.00;;;7.47;;
3647;SDS011;1840;48.892;15.312;2023-01-29T11:07:18;9.60;;;7.07;;
3647;SDS011;1840;48.892;15.312;2023-01-29T11:09:51;29.73;;;7.77;;
3647;SDS011;1840;48.892;15.312;2023-01-29T11:12:26;10.33;;;6.57;;
3647;SDS011;1840;48.892;15.312;2023-01-29T11:14:57;11.80;;;7.37;;
3647;SDS011;1840;48.892;15.312;2023-01-29T11:17:30;9.43;;;7.13;;
3647;SDS011;1840;48.892;15.312;2023-01-29T11:19:58;13.37;;;8.30;;
3647;SDS011;1840;48.892;15.312;2023-01-29T11:22:26;12.43;;;7.37;;
3647;SDS011;1840;48.892;15.312;2023-01-29T11:25:08;9.00;;;6.13;;
3647;SDS011;1840;48.892;15.312;2023-01-29T11:27:45;10.03;;;7.33;;
3647;SDS011;1840;48.892;15.312;2023-01-29T11:30:15;17.37;;;10.40;;
3647;SDS011;1840;48.892;15.312;2023-01-29T11:32:49;9.90;;;6.27;;
3647;SDS011;1840;48.892;15.312;2023-01-29T11:35:20;9.53;;;6.50;;
3647;SDS011;1840;48.892;15.312;2023-01-29T11:37:49;8.43;;;5.97;;
3647;SDS011;1840;48.892;15.312;2023-01-29T11:40:31;8.17;;;5.90;;
3647;SDS011;1840;48.892;15.312;2023-01-29T11:43:16;18.33;;;7.10;;
3647;SDS011;1840;48.892;15.312;2023-01-29T11:45:46;14.60;;;6.10;;
3647;SDS011;1840;48.892;15.312;2023-01-29T11:48:17;14.53;;;6.63;;
3647;SDS011;1840;48.892;15.312;2023-01-29T11:50:50;10.50;;;6.10;;
3647;SDS011;1840;48.892;15.312;2023-01-29T11:53:29;10.60;;;7.30;;
3647;SDS011;1840;48.892;15.312;2023-01-29T11:56:04;11.27;;;7.43;;
3647;SDS011;1840;48.892;15.312;2023-01-29T11:58:43;13.30;;;7.67;;
3647;SDS011;1840;48.892;15.312;2023-01-29T12:01:13;14.47;;;8.70;;
3647;SDS011;1840;48.892;15.312;2023-01-29T12:03:45;12.43;;;7.90;;
3647;SDS011;1840;48.892;15.312;2023-01-29T12:06:19;9.93;;;6.97;;
3647;SDS011;1840;48.892;15.312;2023-01-29T12:08:53;10.20;;;6.70;;
3647;SDS011;1840;48.892;15.312;2023-01-29T12:11:24;12.13;;;7.60;;
3647;SDS011;1840;48.892;15.312;2023-01-29T12:13:56;11.63;;;6.87;;
3647;SDS011;1840;48.892;15.312;2023-01-29T12:16:27;13.60;;;8.27;;
3647;SDS011;1840;48.892;15.312;2023-01-29T12:19:03;12.60;;;8.00;;
3647;SDS011;1840;48.892;15.312;2023-01-29T12:21:37;13.37;;;8.40;;
3647;SDS011;1840;48.892;15.312;2023-01-29T12:24:16;16.83;;;8.10;;
3647;SDS011;1840;48.892;15.312;2023-01-29T12:26:58;10.83;;;7.00;;
3647;SDS011;1840;48.892;15.312;2023-01-29T12:29:32;12.10;;;6.80;;
3647;SDS011;1840;48.892;15.312;2023-01-29T12:32:10;10.60;;;7.17;;
3647;SDS011;1840;48.892;15.312;2023-01-29T12:34:47;15.17;;;7.40;;
3647;SDS011;1840;48.892;15.312;2023-01-29T12:37:20;10.70;;;7.10;;
3647;SDS011;1840;48.892;15.312;2023-01-29T12:39:53;14.90;;;8.93;;
3647;SDS011;1840;48.892;15.312;2023-01-29T12:42:22;8.83;;;7.07;;
3647;SDS011;1840;48.892;15.312;2023-01-29T12:44:53;9.87;;;7.60;;
3647;SDS011;1840;48.892;15.312;2023-01-29T12:47:25;13.90;;;7.90;;
3647;SDS011;1840;48.892;15.312;2023-01-29T12:49:59;11.83;;;8.10;;
3647;SDS011;1840;48.892;15.312;2023-01-29T12:52:34;11.97;;;7.70;;
3647;SDS011;1840;48.892;15.312;2023-01-29T12:55:07;11.60;;;7.67;;
3647;SDS011;1840;48.892;15.312;2023-01-29T12:57:43;16.77;;;7.73;;
3647;SDS011;1840;48.892;15.312;2023-01-29T13:00:17;13.53;;;9.10;;
3647;SDS011;1840;48.892;15.312;2023-01-29T13:02:48;13.67;;;9.47;;
3647;SDS011;1840;48.892;15.312;2023-01-29T13:05:23;14.37;;;8.20;;
3647;SDS011;1840;48.892;15.312;2023-01-29T13:07:55;13.93;;;9.07;;
3647;SDS011;1840;48.892;15.312;2023-01-29T13:10:28;13.23;;;8.73;;
3647;SDS011;1840;48.892;15.312;2023-01-29T13:13:01;15.77;;;9.97;;
3647;SDS011;1840;48.892;15.312;2023-01-29T13:15:33;18.53;;;8.67;;
3647;SDS011;1840;48.892;15.312;2023-01-29T13:18:16;17.20;;;8.73;;
3647;SDS011;1840;48.892;15.312;2023-01-29T13:20:59;19.27;;;8.73;;
3647;SDS011;1840;48.892;15.312;2023-01-29T13:23:29;12.37;;;8.47;;
3647;SDS011;1840;48.892;15.312;2023-01-29T13:26:00;17.40;;;7.93;;
3647;SDS011;1840;48.892;15.312;2023-01-29T13:28:29;14.27;;;8.23;;
3647;SDS011;1840;48.892;15.312;2023-01-29T13:31:17;17.37;;;10.17;;
3647;SDS011;1840;48.892;15.312;2023-01-29T13:33:54;17.87;;;9.13;;
3647;SDS011;1840;48.892;15.312;2023-01-29T13:36:29;14.13;;;8.73;;
3647;SDS011;1840;48.892;15.312;2023-01-29T13:38:59;14.03;;;9.20;;
3647;SDS011;1840;48.892;15.312;2023-01-29T13:41:31;17.03;;;9.70;;
3647;SDS011;1840;48.892;15.312;2023-01-29T13:44:01;14.80;;;9.63;;
3647;SDS011;1840;48.892;15.312;2023-01-29T13:46:32;13.73;;;9.27;;
3647;SDS011;1840;48.892;15.312;2023-01-29T13:49:00;16.07;;;9.63;;
3647;SDS011;1840;48.892;15.312;2023-01-29T13:51:32;14.57;;;10.60;;
3647;SDS011;1840;48.892;15.312;2023-01-29T13:54:03;17.80;;;10.40;;
3647;SDS011;1840;48.892;15.312;2023-01-29T13:56:44;14.20;;;9.30;;
3647;SDS011;1840;48.892;15.312;2023-01-29T13:59:47;15.03;;;10.20;;
3647;SDS011;1840;48.892;15.312;2023-01-29T14:02:20;13.73;;;9.00;;
3647;SDS011;1840;48.892;15.312;2023-01-29T14:07:54;20.10;;;11.20;;
3647;SDS011;1840;48.892;15.312;2023-01-29T14:10:24;22.40;;;10.90;;
3647;SDS011;1840;48.892;15.312;2023-01-29T14:12:54;15.97;;;10.40;;
3647;SDS011;1840;48.892;15.312;2023-01-29T14:18:56;16.13;;;10.60;;
3647;SDS011;1840;48.892;15.312;2023-01-29T14:21:27;14.57;;;9.70;;
3647;SDS011;1840;48.892;15.312;2023-01-29T14:23:57;14.80;;;9.90;;
3647;SDS011;1840;48.892;15.312;2023-01-29T14:26:39;24.70;;;11.07;;
3647;SDS011;1840;48.892;15.312;2023-01-29T14:29:17;14.30;;;9.17;;
3647;SDS011;1840;48.892;15.312;2023-01-29T14:32:06;20.83;;;9.03;;
3647;SDS011;1840;48.892;15.312;2023-01-29T14:34:43;24.17;;;9.80;;
3647;SDS011;1840;48.892;15.312;2023-01-29T14:37:17;11.83;;;7.93;;
3647;SDS011;1840;48.892;15.312;2023-01-29T14:39:47;19.77;;;9.10;;
3647;SDS011;1840;48.892;15.312;2023-01-29T14:42:20;20.77;;;10.40;;
3647;SDS011;1840;48.892;15.312;2023-01-29T14:56:25;14.40;;;9.40;;
3647;SDS011;1840;48.892;15.312;2023-01-29T14:59:01;18.27;;;10.47;;
3647;SDS011;1840;48.892;15.312;2023-01-29T15:01:39;17.63;;;10.23;;
3647;SDS011;1840;48.892;15.312;2023-01-29T15:04:13;15.50;;;9.83;;
3647;SDS011;1840;48.892;15.312;2023-01-29T15:06:49;16.17;;;9.97;;
3647;SDS011;1840;48.892;15.312;2023-01-29T15:09:25;20.77;;;10.13;;
3647;SDS011;1840;48.892;15.312;2023-01-29T15:12:03;15.60;;;10.30;;
3647;SDS011;1840;48.892;15.312;2023-01-29T15:14:40;19.07;;;10.93;;
3647;SDS011;1840;48.892;15.312;2023-01-29T15:17:18;16.20;;;10.10;;
3647;SDS011;1840;48.892;15.312;2023-01-29T15:19:51;16.40;;;10.97;;
3647;SDS011;1840;48.892;15.312;2023-01-29T15:22:22;22.03;;;12.27;;
3647;SDS011;1840;48.892;15.312;2023-01-29T15:25:01;18.70;;;10.90;;
3647;SDS011;1840;48.892;15.312;2023-01-29T15:27:32;20.37;;;12.27;;
3647;SDS011;1840;48.892;15.312;2023-01-29T15:30:02;18.17;;;10.70;;
3647;SDS011;1840;48.892;15.312;2023-01-29T15:32:34;20.30;;;11.07;;
3647;SDS011;1840;48.892;15.312;2023-01-29T15:35:05;29.30;;;12.20;;
3647;SDS011;1840;48.892;15.312;2023-01-29T15:37:38;45.53;;;14.87;;
3647;SDS011;1840;48.892;15.312;2023-01-29T15:40:11;22.40;;;13.30;;
3647;SDS011;1840;48.892;15.312;2023-01-29T15:42:44;21.60;;;11.20;;